createdAt,value
2019-04-21T00:00:35.534Z,16.50
2019-04-21T00:03:13.263Z,19.33
2019-04-21T00:05:52.990Z,18.10
2019-04-21T00:08:33.509Z,19.40
2019-04-21T00:10:56.713Z,20.13
2019-04-21T00:13:20.480Z,18.40
2019-04-21T00:15:40.705Z,19.33
2019-04-21T00:18:40.891Z,21.70
2019-04-21T00:21:12.202Z,21.63
2019-04-21T00:23:48.318Z,24.47
2019-04-21T00:26:14.603Z,23.47
2019-04-21T00:28:53.387Z,24.30
2019-04-21T00:31:18.206Z,20.13
2019-04-21T00:33:34.353Z,25.50
2019-04-21T00:36:09.597Z,22.13
2019-04-21T00:39:02.987Z,22.30
2019-04-21T00:41:19.338Z,24.40
2019-04-21T00:43:44.707Z,24.43
2019-04-21T00:46:08.481Z,24.43
2019-04-21T00:48:50.813Z,22.30
2019-04-21T00:53:57.927Z,23.50
2019-04-21T00:56:28.905Z,24.27
2019-04-21T00:58:53.647Z,23.57
2019-04-21T01:01:21.832Z,23.77
2019-04-21T01:03:53.758Z,27.60
2019-04-21T01:06:26.834Z,23.27
2019-04-21T01:08:53.215Z,23.97
2019-04-21T01:11:23.886Z,26.07
2019-04-21T01:13:58.022Z,25.20
2019-04-21T01:16:31.686Z,23.00
2019-04-21T01:18:53.024Z,24.07
2019-04-21T01:21:00.515Z,28.40
2019-04-21T01:23:29.712Z,27.03
2019-04-21T01:26:13.343Z,26.63
2019-04-21T01:28:47.993Z,28.57
2019-04-21T01:31:15.457Z,24.07
2019-04-21T01:33:50.742Z,28.13
2019-04-21T01:36:14.023Z,25.90
2019-04-21T01:38:48.129Z,26.47
2019-04-21T01:41:19.835Z,33.10
2019-04-21T01:43:44.413Z,28.90
2019-04-21T01:46:11.236Z,31.13
2019-04-21T01:48:39.152Z,28.57
2019-04-21T01:51:10.053Z,26.90
2019-04-21T01:54:03.873Z,27.93
2019-04-21T01:56:46.557Z,32.50
2019-04-21T01:59:03.743Z,28.27
2019-04-21T02:01:49.268Z,30.73
2019-04-21T02:04:24.225Z,28.07
2019-04-21T02:06:54.321Z,28.07
2019-04-21T02:09:20.927Z,28.53
2019-04-21T02:11:56.359Z,29.43
2019-04-21T02:14:23.743Z,29.43
2019-04-21T02:16:51.056Z,33.00
2019-04-21T02:19:16.580Z,32.43
2019-04-21T02:21:46.307Z,28.10
2019-04-21T02:24:31.882Z,28.77
2019-04-21T02:26:55.904Z,30.57
2019-04-21T02:29:29.151Z,31.00
2019-04-21T02:32:21.229Z,30.07
2019-04-21T02:34:37.386Z,31.60
2019-04-21T02:37:17.183Z,37.03
2019-04-21T02:42:01.711Z,36.60
2019-04-21T02:47:23.177Z,33.90
2019-04-21T02:49:37.325Z,32.57
2019-04-21T02:52:01.671Z,27.53
2019-04-21T02:59:42.314Z,31.77
2019-04-21T03:05:24.947Z,32.90
2019-04-21T03:08:00.846Z,31.97
2019-04-21T03:10:28.291Z,36.53
2019-04-21T03:12:45.839Z,32.53
2019-04-21T03:17:48.812Z,33.90
2019-04-21T03:20:17.578Z,31.27
2019-04-21T03:22:49.071Z,32.97
2019-04-21T03:25:25.400Z,28.77
2019-04-21T03:27:57.279Z,32.13
2019-04-21T03:35:54.420Z,32.27
2019-04-21T03:37:36.777Z,30.40
2019-04-21T03:40:15.146Z,31.53
2019-04-21T03:42:42.563Z,32.80
2019-04-21T03:45:14.985Z,33.30
2019-04-21T03:47:36.053Z,30.87
2019-04-21T04:11:19.760Z,35.33
2019-04-21T04:16:16.919Z,42.77
2019-04-21T04:21:20.949Z,33.40
2019-04-21T04:26:19.209Z,36.70
2019-04-21T04:31:19.611Z,41.60
2019-04-21T04:38:50.154Z,38.00
2019-04-21T04:41:42.302Z,38.87
2019-04-21T04:44:13.076Z,38.70
2019-04-21T04:46:29.373Z,40.53
2019-04-21T04:49:11.455Z,38.83
2019-04-21T04:51:33.402Z,41.53
2019-04-21T04:53:47.177Z,45.43
2019-04-21T04:56:38.832Z,42.23
2019-04-21T04:59:18.630Z,49.10
2019-04-21T05:01:32.018Z,44.97
2019-04-21T05:03:57.067Z,43.10
2019-04-21T05:06:41.922Z,45.30
2019-04-21T05:11:40.293Z,44.60
2019-04-21T05:14:18.358Z,50.93
2019-04-21T05:21:30.180Z,47.57
2019-04-21T05:23:51.109Z,46.90
2019-04-21T05:26:14.676Z,52.50
2019-04-21T05:28:47.509Z,52.53
2019-04-21T05:31:51.015Z,53.53
2019-04-21T05:34:18.584Z,50.57
2019-04-21T05:37:03.989Z,61.50
2019-04-21T05:39:52.396Z,57.83
2019-04-21T05:42:17.056Z,63.93
2019-04-21T05:45:04.341Z,58.33
2019-04-21T05:47:36.258Z,71.27
2019-04-21T05:50:04.575Z,65.93
2019-04-21T05:52:45.917Z,65.10
2019-04-21T05:55:27.765Z,67.80
2019-04-21T05:57:46.606Z,70.10
2019-04-21T06:00:23.567Z,63.70
2019-04-21T06:02:57.750Z,67.83
2019-04-21T06:07:58.809Z,67.63
2019-04-21T06:10:31.547Z,71.03
2019-04-21T06:13:01.273Z,66.23
2019-04-21T06:15:32.586Z,65.60
2019-04-21T06:17:58.180Z,68.40
2019-04-21T06:20:27.417Z,60.10
2019-04-21T06:23:00.716Z,67.07
2019-04-21T06:27:59.987Z,67.07
2019-04-21T06:30:33.444Z,63.67
2019-04-21T06:32:56.731Z,62.67
2019-04-21T06:36:08.992Z,65.93
2019-04-21T06:38:23.434Z,64.73
2019-04-21T06:40:50.129Z,62.57
2019-04-21T06:43:27.336Z,59.53
2019-04-21T06:45:49.450Z,63.93
2019-04-21T06:48:18.497Z,63.40
2019-04-21T06:50:46.731Z,60.87
2019-04-21T06:53:24.116Z,62.63
2019-04-21T06:55:37.808Z,64.27
2019-04-21T06:58:10.056Z,60.30
2019-04-21T07:00:43.040Z,59.57
2019-04-21T07:05:52.452Z,61.27
2019-04-21T07:10:37.465Z,57.33
2019-04-21T07:13:07.837Z,61.17
2019-04-21T07:15:43.549Z,58.27
2019-04-21T07:18:12.903Z,54.40
2019-04-21T07:20:47.770Z,57.93
2019-04-21T07:23:20.505Z,60.93
2019-04-21T07:25:48.274Z,54.83
2019-04-21T07:28:10.888Z,56.83
2019-04-21T07:30:45.318Z,52.80
2019-04-21T07:33:33.377Z,59.17
2019-04-21T07:35:48.663Z,55.23
2019-04-21T07:38:02.905Z,49.77
2019-04-21T07:40:36.512Z,49.87
2019-04-21T07:43:05.662Z,45.93
2019-04-21T07:45:35.092Z,47.90
2019-04-21T07:48:24.584Z,48.33
2019-04-21T07:51:37.767Z,44.97
2019-04-21T07:54:20.031Z,46.53
2019-04-21T07:56:35.164Z,44.37
2019-04-21T07:59:25.611Z,51.67
2019-04-21T08:01:50.729Z,42.57
2019-04-21T08:04:38.183Z,41.10
2019-04-21T08:06:52.071Z,47.20
2019-04-21T08:09:22.951Z,41.60
2019-04-21T08:11:45.680Z,43.80
2019-04-21T08:14:25.446Z,43.73
2019-04-21T08:16:57.289Z,40.67
2019-04-21T08:19:25.092Z,43.13
2019-04-21T08:22:05.215Z,40.17
2019-04-21T08:24:31.539Z,39.57
2019-04-21T08:26:57.589Z,39.73
2019-04-21T08:32:02.885Z,43.60
2019-04-21T08:34:28.392Z,38.70
2019-04-21T08:36:57.514Z,38.07
2019-04-21T08:39:33.389Z,39.03
2019-04-21T08:41:58.585Z,38.63
2019-04-21T08:44:38.165Z,37.53
2019-04-21T08:46:58.762Z,37.83
2019-04-21T08:49:41.533Z,39.87
2019-04-21T08:52:15.217Z,36.83
2019-04-21T08:54:43.100Z,37.03
2019-04-21T08:57:58.245Z,35.03
2019-04-21T09:00:52.892Z,37.53
2019-04-21T09:03:36.093Z,33.67
2019-04-21T09:06:22.536Z,34.60
2019-04-21T09:08:46.187Z,35.73
2019-04-21T09:11:11.482Z,36.80
2019-04-21T09:13:54.681Z,35.73
2019-04-21T09:16:24.925Z,35.70
2019-04-21T09:20:13.553Z,38.73
2019-04-21T09:22:37.714Z,33.13
2019-04-21T09:25:12.229Z,37.57
2019-04-21T09:27:36.814Z,32.33
2019-04-21T09:29:59.355Z,35.70
2019-04-21T09:32:30.763Z,34.70
2019-04-21T09:34:58.131Z,39.83
2019-04-21T09:37:37.864Z,36.00
2019-04-21T09:39:57.486Z,33.83
2019-04-21T09:42:33.356Z,30.57
2019-04-21T09:45:00.533Z,33.23
2019-04-21T09:47:33.636Z,33.23
2019-04-21T09:49:58.568Z,33.93
2019-04-21T09:52:37.136Z,33.07
2019-04-21T09:55:04.949Z,33.53
2019-04-21T09:57:37.249Z,31.37
2019-04-21T10:00:06.792Z,29.70
2019-04-21T10:02:40.025Z,31.07
2019-04-21T10:05:14.538Z,38.93
2019-04-21T10:07:46.500Z,30.00
2019-04-21T10:10:14.932Z,30.57
2019-04-21T10:12:45.718Z,33.83
2019-04-21T10:15:14.249Z,26.50
2019-04-21T10:17:54.062Z,30.63
2019-04-21T10:20:22.381Z,28.43
2019-04-21T10:22:50.961Z,32.80
2019-04-21T10:25:20.819Z,29.33
2019-04-21T10:27:49.698Z,28.00
2019-04-21T10:30:20.370Z,24.77
2019-04-21T10:32:48.499Z,26.13
2019-04-21T10:35:23.025Z,23.70
2019-04-21T10:38:05.745Z,26.87
2019-04-21T10:40:21.267Z,25.80
2019-04-21T10:43:00.446Z,26.87
2019-04-21T10:45:35.393Z,25.50
2019-04-21T10:48:03.119Z,26.17
2019-04-21T10:50:43.109Z,26.07
2019-04-21T10:53:20.903Z,24.47
2019-04-21T10:56:11.448Z,23.67
2019-04-21T10:58:32.150Z,25.80
2019-04-21T11:01:08.370Z,23.63
2019-04-21T11:03:42.605Z,26.60
2019-04-21T11:06:12.740Z,27.03
2019-04-21T11:08:43.973Z,26.43
2019-04-21T11:11:26.104Z,24.73
2019-04-21T11:14:49.535Z,22.03
2019-04-21T11:17:30.172Z,25.00
2019-04-21T11:20:26.822Z,24.27
2019-04-21T11:22:55.636Z,22.63
2019-04-21T11:25:37.795Z,25.10
2019-04-21T11:28:16.717Z,24.23
2019-04-21T11:30:46.603Z,21.10
2019-04-21T11:33:15.391Z,23.30
2019-04-21T11:35:51.385Z,20.63
2019-04-21T11:38:51.319Z,21.27
2019-04-21T11:41:03.501Z,19.67
2019-04-21T11:44:14.097Z,22.37
2019-04-21T11:46:54.470Z,20.03
2019-04-21T11:49:22.485Z,15.97
2019-04-21T11:51:51.060Z,16.33
2019-04-21T11:54:20.872Z,14.60
2019-04-21T11:56:50.645Z,17.13
2019-04-21T11:59:21.799Z,17.37
2019-04-21T12:01:49.811Z,17.40
2019-04-21T12:04:23.157Z,17.67
2019-04-21T12:06:52.568Z,16.93
2019-04-21T12:09:27.420Z,18.83
2019-04-21T12:12:03.420Z,18.40
2019-04-21T12:14:41.856Z,17.07
2019-04-21T12:17:12.134Z,16.93
2019-04-21T12:19:42.917Z,18.33
2019-04-21T12:22:19.596Z,19.37
2019-04-21T12:24:40.573Z,19.20
2019-04-21T12:27:09.843Z,16.03
2019-04-21T12:29:37.855Z,14.97
2019-04-21T12:33:11.973Z,17.67
2019-04-21T12:35:41.873Z,19.03
2019-04-21T12:38:14.195Z,17.73
2019-04-21T12:40:42.484Z,20.43
2019-04-21T12:43:14.633Z,17.77
2019-04-21T12:45:42.389Z,15.03
2019-04-21T12:48:11.284Z,18.93
2019-04-21T12:50:39.575Z,20.90
2019-04-21T12:53:07.663Z,18.67
2019-04-21T12:55:44.479Z,17.80
2019-04-21T13:02:13.645Z,19.90
2019-04-21T13:05:13.609Z,15.50
2019-04-21T13:07:49.087Z,15.33
2019-04-21T13:10:26.542Z,17.97
2019-04-21T13:12:59.817Z,15.27
2019-04-21T13:15:29.352Z,15.77
2019-04-21T13:17:58.612Z,16.83
2019-04-21T13:20:31.998Z,16.17
2019-04-21T13:22:59.778Z,16.03
2019-04-21T13:25:28.032Z,15.37
2019-04-21T13:27:56.488Z,18.70
2019-04-21T13:30:24.827Z,15.83
2019-04-21T13:32:53.467Z,16.00
2019-04-21T13:35:30.992Z,15.80
2019-04-21T13:37:58.766Z,15.77
2019-04-21T13:41:02.128Z,13.70
2019-04-21T13:43:17.070Z,17.40
2019-04-21T13:45:48.004Z,17.23
2019-04-21T13:48:16.842Z,15.60
2019-04-21T13:50:45.176Z,15.07
2019-04-21T13:54:02.143Z,17.67
2019-04-21T13:56:38.559Z,13.60
2019-04-21T13:59:08.336Z,14.60
2019-04-21T14:01:37.325Z,18.60
2019-04-21T14:04:09.405Z,14.80
2019-04-21T14:06:38.413Z,16.07
2019-04-21T14:09:09.326Z,18.37
2019-04-21T14:11:43.301Z,15.10
2019-04-21T14:14:14.319Z,14.97
2019-04-21T14:16:45.869Z,15.63
2019-04-21T14:19:13.522Z,13.83
2019-04-21T14:21:41.320Z,14.13
2019-04-21T14:24:09.050Z,14.37
2019-04-21T14:26:38.404Z,11.73
2019-04-21T14:29:07.622Z,17.10
2019-04-21T14:31:38.251Z,13.60
2019-04-21T14:34:08.025Z,12.20
2019-04-21T14:36:36.955Z,13.03
2019-04-21T14:39:08.163Z,17.27
2019-04-21T14:41:35.894Z,15.77
2019-04-21T14:44:05.233Z,13.60
2019-04-21T14:46:57.381Z,14.43
2019-04-21T14:49:53.262Z,14.60
2019-04-21T14:52:25.267Z,14.53
2019-04-21T14:55:04.828Z,13.47
2019-04-21T14:57:33.515Z,14.33
2019-04-21T15:00:04.853Z,14.30
2019-04-21T15:02:33.987Z,16.03
2019-04-21T15:05:02.094Z,14.97
2019-04-21T15:07:30.882Z,17.53
2019-04-21T15:10:05.809Z,10.53
2019-04-21T15:12:37.974Z,15.27
2019-04-21T15:15:07.662Z,15.27
2019-04-21T15:17:35.900Z,15.50
2019-04-21T15:20:08.583Z,12.90
2019-04-21T15:22:34.492Z,17.27
2019-04-21T15:25:02.805Z,13.43
2019-04-21T15:27:32.780Z,15.13
2019-04-21T15:30:04.839Z,21.00
2019-04-21T15:32:32.895Z,12.53
2019-04-21T15:35:00.498Z,14.80
2019-04-21T15:37:29.117Z,13.83
2019-04-21T15:39:56.776Z,113.93
2019-04-21T15:42:24.723Z,25.40
2019-04-21T15:44:54.644Z,24.87
2019-04-21T15:47:22.403Z,15.70
2019-04-21T15:50:02.925Z,12.87
2019-04-21T15:52:25.674Z,14.53
2019-04-21T15:54:59.197Z,12.47
2019-04-21T15:57:49.523Z,12.93
2019-04-21T16:00:26.667Z,12.67
2019-04-21T16:02:54.888Z,15.03
2019-04-21T16:05:24.462Z,14.57
2019-04-21T16:07:52.104Z,13.23
2019-04-21T16:10:33.675Z,13.67
2019-04-21T16:12:49.945Z,12.90
2019-04-21T16:15:18.870Z,13.33
2019-04-21T16:17:47.664Z,17.50
2019-04-21T16:20:15.590Z,16.67
2019-04-21T16:22:44.511Z,16.03
2019-04-21T16:25:12.818Z,30.63
2019-04-21T16:27:43.412Z,23.57
2019-04-21T16:30:12.215Z,14.57
2019-04-21T16:33:14.302Z,14.50
2019-04-21T16:35:42.418Z,15.77
2019-04-21T16:38:11.131Z,13.70
2019-04-21T16:40:48.201Z,13.43
2019-04-21T16:43:08.363Z,15.20
2019-04-21T16:45:37.015Z,14.23
2019-04-21T16:48:05.336Z,14.10
2019-04-21T16:50:33.962Z,14.43
2019-04-21T16:53:16.477Z,12.17
2019-04-21T16:55:53.104Z,10.57
2019-04-21T16:58:52.601Z,12.43
2019-04-21T17:01:25.873Z,11.67
2019-04-21T17:03:54.741Z,12.43
2019-04-21T17:06:22.842Z,21.03
2019-04-21T17:08:50.660Z,10.33
2019-04-21T17:11:25.552Z,13.63
2019-04-21T17:13:50.046Z,11.00
2019-04-21T17:16:42.204Z,10.53
2019-04-21T17:19:00.604Z,12.50
2019-04-21T17:21:17.266Z,11.83
2019-04-21T17:23:46.444Z,10.90
2019-04-21T17:26:19.349Z,11.73
2019-04-21T17:28:49.453Z,9.80
2019-04-21T17:31:18.097Z,9.87
2019-04-21T17:33:47.052Z,11.13
2019-04-21T17:36:16.691Z,11.33
2019-04-21T17:38:45.905Z,11.33
2019-04-21T17:41:23.689Z,11.93
2019-04-21T17:43:45.657Z,12.17
2019-04-21T17:46:20.196Z,13.83
2019-04-21T17:48:42.953Z,11.30
2019-04-21T17:51:33.220Z,11.23
2019-04-21T17:54:15.899Z,11.20
2019-04-21T17:57:07.856Z,12.27
2019-04-21T17:59:43.229Z,9.87
2019-04-21T18:01:54.545Z,11.20
2019-04-21T18:04:34.725Z,12.53
2019-04-21T18:07:34.916Z,10.23
2019-04-21T18:10:04.352Z,12.37
2019-04-21T18:12:33.677Z,9.40
2019-04-21T18:14:57.937Z,10.40
2019-04-21T18:17:16.426Z,11.33
2019-04-21T18:19:47.503Z,12.00
2019-04-21T18:22:37.474Z,9.00
2019-04-21T18:25:07.023Z,8.90
2019-04-21T18:27:34.350Z,9.43
2019-04-21T18:30:04.392Z,10.83
2019-04-21T18:32:37.574Z,10.80
2019-04-21T18:35:30.206Z,13.27
2019-04-21T18:38:13.274Z,9.40
2019-04-21T18:40:37.646Z,14.33
2019-04-21T18:43:50.166Z,10.10
2019-04-21T18:46:20.542Z,10.63
2019-04-21T18:48:59.011Z,10.80
2019-04-21T18:51:54.276Z,11.33
2019-04-21T18:54:37.418Z,15.63
2019-04-21T18:57:05.486Z,10.00
2019-04-21T18:59:29.803Z,14.83
2019-04-21T19:02:02.095Z,12.93
2019-04-21T19:04:28.768Z,11.27
2019-04-21T19:07:06.615Z,11.97
2019-04-21T19:10:03.631Z,11.70
2019-04-21T19:12:16.703Z,7.53
2019-04-21T19:14:45.671Z,11.70
2019-04-21T19:17:58.154Z,9.67
2019-04-21T19:22:15.636Z,10.40
2019-04-21T19:24:49.101Z,9.97
2019-04-21T19:27:20.878Z,9.77
2019-04-21T19:29:55.424Z,8.57
2019-04-21T19:32:19.830Z,10.27
2019-04-21T19:34:32.301Z,7.50
2019-04-21T19:37:10.862Z,9.20
2019-04-21T19:39:49.051Z,10.10
2019-04-21T19:42:16.773Z,10.97
2019-04-21T19:44:52.086Z,9.87
2019-04-21T19:47:28.349Z,10.93
2019-04-21T19:49:55.100Z,11.83
2019-04-21T19:52:11.613Z,13.97
2019-04-21T19:54:39.686Z,11.23
2019-04-21T19:57:04.806Z,11.17
2019-04-21T19:59:40.716Z,10.80
2019-04-21T20:02:02.850Z,11.20
2019-04-21T20:04:38.489Z,10.53
2019-04-21T20:07:16.293Z,12.40
2019-04-21T20:09:47.798Z,8.87
2019-04-21T20:12:18.446Z,14.30
2019-04-21T20:15:04.862Z,9.50
2019-04-21T20:17:12.061Z,10.23
2019-04-21T20:19:27.428Z,8.73
2019-04-21T20:21:56.963Z,8.50
2019-04-21T20:24:28.830Z,10.00
2019-04-21T20:27:03.579Z,10.03
2019-04-21T20:29:47.102Z,8.27
2019-04-21T20:32:20.043Z,10.27
2019-04-21T20:34:46.148Z,10.10
2019-04-21T20:37:15.003Z,12.13
2019-04-21T20:39:26.670Z,11.93
2019-04-21T20:42:11.177Z,12.80
2019-04-21T20:44:43.806Z,9.33
2019-04-21T20:47:03.504Z,11.60
2019-04-21T20:49:34.118Z,12.97
2019-04-21T20:52:14.116Z,9.23
2019-04-21T20:54:43.295Z,14.97
2019-04-21T20:57:11.405Z,10.87
2019-04-21T20:59:31.721Z,12.43
2019-04-21T21:02:05.255Z,14.83
2019-04-21T21:04:29.563Z,25.67
2019-04-21T21:07:06.205Z,18.77
2019-04-21T21:09:35.839Z,14.37
2019-04-21T21:12:18.889Z,12.47
2019-04-21T21:14:31.704Z,12.83
2019-04-21T21:17:06.570Z,12.67
2019-04-21T21:19:34.356Z,11.83
2019-04-21T21:22:02.412Z,15.27
2019-04-21T21:24:55.853Z,17.97
2019-04-21T21:27:09.755Z,14.87
2019-04-21T21:29:43.002Z,13.43
2019-04-21T21:32:16.558Z,12.90
2019-04-21T21:34:47.427Z,12.97
2019-04-21T21:37:21.658Z,13.47
2019-04-21T21:39:51.039Z,12.07
2019-04-21T21:41:58.586Z,13.63
2019-04-21T21:44:24.604Z,14.20
2019-04-21T21:47:04.197Z,13.53
2019-04-21T21:49:36.956Z,17.37
2019-04-21T21:52:04.380Z,15.77
2019-04-21T21:54:25.583Z,18.53
2019-04-21T21:56:56.430Z,14.47
2019-04-21T21:59:27.807Z,13.77
2019-04-21T22:01:55.839Z,14.33
2019-04-21T22:04:26.866Z,14.77
2019-04-21T22:07:00.358Z,14.00
2019-04-21T22:09:24.307Z,11.17
2019-04-21T22:11:56.558Z,10.70
2019-04-21T22:14:26.898Z,10.33
2019-04-21T22:17:10.900Z,11.03
2019-04-21T22:19:45.565Z,11.83
2019-04-21T22:22:14.153Z,9.70
2019-04-21T22:24:43.965Z,8.80
2019-04-21T22:26:56.977Z,10.73
2019-04-21T22:29:29.215Z,10.43
2019-04-21T22:32:01.380Z,10.27
2019-04-21T22:34:31.418Z,12.37
2019-04-21T22:37:16.120Z,11.57
2019-04-21T22:39:44.631Z,9.40
2019-04-21T22:42:05.030Z,11.87
2019-04-21T22:44:30.184Z,9.70
2019-04-21T22:47:10.957Z,10.53
2019-04-21T22:49:28.892Z,11.33
2019-04-21T22:52:00.802Z,12.57
2019-04-21T22:54:31.928Z,8.83
2019-04-21T22:57:01.642Z,11.73
2019-04-21T22:59:26.758Z,9.83
2019-04-21T23:01:57.636Z,9.20
2019-04-21T23:04:35.583Z,11.17
2019-04-21T23:07:02.866Z,19.53
2019-04-21T23:09:28.747Z,10.73
2019-04-21T23:11:58.444Z,8.53
2019-04-21T23:14:27.845Z,13.47
2019-04-21T23:17:14.933Z,11.67
2019-04-21T23:19:41.452Z,13.70
2019-04-21T23:22:18.873Z,13.10
2019-04-21T23:24:48.089Z,12.90
2019-04-21T23:27:09.704Z,10.57
2019-04-21T23:29:52.678Z,12.90
2019-04-21T23:32:11.209Z,13.93
2019-04-21T23:34:26.617Z,13.97
2019-04-21T23:37:00.748Z,14.60
2019-04-21T23:39:27.406Z,16.53
2019-04-21T23:41:55.954Z,11.57
2019-04-21T23:44:24.156Z,12.13
2019-04-21T23:46:57.542Z,12.47
2019-04-21T23:49:35.398Z,13.77
2019-04-21T23:52:00.346Z,11.70
2019-04-21T23:54:21.320Z,15.23
2019-04-21T23:56:49.493Z,11.70
2019-04-21T23:59:18.011Z,11.00
